East Milton, Massachusetts
Current Conditions -  °F | °C
As of 4:18 AM on Friday 24 Oct 2014 (Local Time) from KOWD Reporting Station
Light Rain Light Rain  
Wind Chill: 50°   Ceiling: 1200
Heat Index: 50°   Visibility: 4mi
Dew Point: 48°   Wind: 12mph
Humidity: 93%   Direction: 330°NNW
Pressure: 29.65"   Gusts: 17mph
Location:  42.2°N, 71.11°W
Report Text: KOWD 240818Z AUTO 33010G15KT 4SM -RA BR FEW006 BKN012 OVC018 10/09 A2965 RMK AO2 P0002 T01000089
Loading
Personal Weather Stations






























Interactive Weather Map
Tropical Storm Tracking
New forecast layout! Learn more

10-Day Weather Forecast

Advertisements
Track Severe Weather on mobile